Matheson, Colorado
Current Conditions -  °F | °C
As of 8:55 PM on Saturday 25 Oct 2014 (Local Time) from KLIC Reporting Station
Clear Clear  
Wind Chill: 41°   Ceiling: Unl
Heat Index: 44°   Visibility: 10mi
Dew Point: 32°   Wind: 6mph
Humidity: 63%   Direction: 10°N
Pressure: 30.05"   Gusts: NA
Location:  39.17°N, 103.98°W
Report Text: KLIC 260255Z AUTO 01005KT 10SM CLR 07/00 A3005 RMK AO2 SLP143 T00670000 58006 $
Loading
Personal Weather Stations






























Interactive Weather Map
Tropical Storm Tracking
New forecast layout! Learn more

10-Day Weather Forecast

Advertisements
Track Severe Weather on mobile